Time;durP1;ratioP1;P1;durP2;ratioP2;P2;SDS_P1;SDS_P2;PMS_P1;PMS_P2;Temp;Humidity;BMP_temperature;BMP_pressure;BME280_temperature;BME280_humidity;BME280_pressure;Samples;Min_cycle;Max_cycle;Signal;HPM_P1;HPM_P2
2023/05/10 00:00:15;;;;;;;;;;;;;;;;;;5066400;28;20010;-66
2023/05/10 00:02:42;;;;;;;;;;;;;;;;;;5065464;28;19956;-66
2023/05/10 00:05:09;;;;;;;;;;;;;;;;;;5065785;28;19925;-66
2023/05/10 00:07:36;;;;;;;;;;;;;;;;;;5064067;28;19964;-66
2023/05/10 00:10:03;;;;;;;;;;;;;;;;;;5067701;28;19978;-66
2023/05/10 00:12:32;;;;;;;;;;;;;;;;;;5064063;28;20284;-66
2023/05/10 00:14:59;;;;;;;;;;;;;;;;;;5065635;28;19956;-66
2023/05/10 00:17:26;;;;;;;;;;;;;;;;;;5061064;28;20017;-66
2023/05/10 00:19:53;;;;;;;;;;;;;;;;;;5064619;28;19932;-67
2023/05/10 00:22:20;;;;;;;;;;;;;;;;;;5065148;28;20398;-66
2023/05/10 00:24:47;;;;;;;;;;;;;;;;;;5064488;28;20003;-66
2023/05/10 00:27:14;;;;;;;;;;;;;;;;;;5068793;28;19924;-66
2023/05/10 00:29:41;;;;;;;;;;;;;;;;;;5064586;28;20331;-66
2023/05/10 00:32:08;;;;;;;;;;;;;;;;;;5064077;28;19964;-66
2023/05/10 00:34:35;;;;;;;;;;;;;;;;;;5064655;28;19947;-66
2023/05/10 00:37:02;;;;;;;;;;;;;;;;;;5064821;28;19924;-66
2023/05/10 00:39:29;;;;;;;;;;;;;;;;;;5063605;28;19924;-66
2023/05/10 00:41:56;;;;;;;;;;;;;;;;;;5063654;28;19924;-66
2023/05/10 00:44:23;;;;;;;;;;;;;;;;;;5063986;28;19967;-66
2023/05/10 00:46:50;;;;;;;;;;;;;;;;;;5069624;28;20457;-66
2023/05/10 00:49:17;;;;;;;;;;;;;;;;;;5064275;28;19931;-66
2023/05/10 00:51:44;;;;;;;;;;;;;;;;;;5070724;28;19971;-66
2023/05/10 00:54:11;;;;;;;;;;;;;;;;;;5069451;28;19928;-66
2023/05/10 00:56:38;;;;;;;;;;;;;;;;;;5064120;28;19928;-66
2023/05/10 00:59:05;;;;;;;;;;;;;;;;;;5063087;28;20472;-66
2023/05/10 01:01:32;;;;;;;;;;;;;;;;;;5065244;28;19978;-66
2023/05/10 01:03:59;;;;;;;;;;;;;;;;;;5074716;28;19924;-66
2023/05/10 01:06:27;;;;;;;;;;;;;;;;;;5071180;28;19928;-67
2023/05/10 01:08:54;;;;;;;;;;;;;;;;;;5069739;28;19924;-67
2023/05/10 01:11:21;;;;;;;;;;;;;;;;;;5062000;28;19924;-67
2023/05/10 01:13:48;;;;;;;;;;;;;;;;;;5061436;28;20641;-66
2023/05/10 01:16:16;;;;;;;;;;;;;;;;;;5065225;28;19925;-67
2023/05/10 01:18:43;;;;;;;;;;;;;;;;;;5073859;28;19979;-66
2023/05/10 01:21:10;;;;;;;;;;;;;;;;;;5063843;28;19959;-66
2023/05/10 01:23:36;;;;;;;;;;;;;;;;;;5062036;28;20037;-66
2023/05/10 01:26:03;;;;;;;;;;;;;;;;;;5079971;28;19924;-67
2023/05/10 01:28:30;;;;;;;;;;;;;;;;;;5064939;28;19933;-67
2023/05/10 01:30:57;;;;;;;;;;;;;;;;;;5069089;28;19928;-66
2023/05/10 01:33:24;;;;;;;;;;;;;;;;;;5065577;28;20007;-67
2023/05/10 01:35:53;;;;;;;;;;;;;;;;;;5068433;28;19970;-67
2023/05/10 01:38:20;;;;;;;;;;;;;;;;;;5070195;28;19971;-67
2023/05/10 01:40:47;;;;;;;;;;;;;;;;;;5067157;28;20459;-66
2023/05/10 01:43:14;;;;;;;;;;;;;;;;;;5067244;28;19978;-66
2023/05/10 01:45:41;;;;;;;;;;;;;;;;;;5064789;28;19968;-66
2023/05/10 01:48:08;;;;;;;;;;;;;;;;;;5074365;28;19924;-66
2023/05/10 01:50:35;;;;;;;;;;;;;;;;;;5067508;28;19925;-67
2023/05/10 01:53:02;;;;;;;;;;;;;;;;;;5067307;28;20648;-66
2023/05/10 01:55:29;;;;;;;;;;;;;;;;;;5067829;28;19933;-67
2023/05/10 01:57:56;;;;;;;;;;;;;;;;;;5067777;28;19959;-66
2023/05/10 02:00:23;;;;;;;;;;;;;;;;;;5075595;28;20022;-67
2023/05/10 02:02:50;;;;;;;;;;;;;;;;;;5072376;28;20460;-66
2023/05/10 02:05:17;;;;;;;;;;;;;;;;;;5067555;28;19990;-66
2023/05/10 02:07:44;;;;;;;;;;;;;;;;;;5068591;28;19928;-66
2023/05/10 02:10:11;;;;;;;;;;;;;;;;;;5068626;28;20017;-66
2023/05/10 02:12:38;;;;;;;;;;;;;;;;;;5065814;28;19968;-66
2023/05/10 02:15:05;;;;;;;;;;;;;;;;;;5066723;28;19924;-66
2023/05/10 02:17:32;;;;;;;;;;;;;;;;;;5066152;28;19924;-66
2023/05/10 02:19:59;;;;;;;;;;;;;;;;;;5077431;28;20017;-66
2023/05/10 02:22:26;;;;;;;;;;;;;;;;;;5071954;28;19946;-66
2023/05/10 02:24:53;;;;;;;;;;;;;;;;;;5067390;28;20416;-66
2023/05/10 02:27:20;;;;;;;;;;;;;;;;;;5067442;28;20018;-66
2023/05/10 02:29:47;;;;;;;;;;;;;;;;;;5078144;28;20013;-66
2023/05/10 02:32:14;;;;;;;;;;;;;;;;;;5072182;28;19982;-66
2023/05/10 02:34:41;;;;;;;;;;;;;;;;;;5075742;28;19978;-66
2023/05/10 02:37:08;;;;;;;;;;;;;;;;;;5070059;28;19936;-66
2023/05/10 02:39:35;;;;;;;;;;;;;;;;;;5065016;28;20291;-66
2023/05/10 02:42:02;;;;;;;;;;;;;;;;;;5069062;28;19966;-67
2023/05/10 02:44:30;;;;;;;;;;;;;;;;;;5066099;28;19929;-67
2023/05/10 02:46:58;;;;;;;;;;;;;;;;;;5065689;28;23046;-67
2023/05/10 02:49:25;;;;;;;;;;;;;;;;;;5070130;28;19928;-66
2023/05/10 02:51:52;;;;;;;;;;;;;;;;;;5072873;28;19928;-66
2023/05/10 02:54:19;;;;;;;;;;;;;;;;;;5066687;28;19951;-66
2023/05/10 02:56:46;;;;;;;;;;;;;;;;;;5066345;28;19979;-66
2023/05/10 02:59:13;;;;;;;;;;;;;;;;;;5065814;28;20435;-67
2023/05/10 03:01:40;;;;;;;;;;;;;;;;;;5072233;28;19985;-66
2023/05/10 03:04:07;;;;;;;;;;;;;;;;;;5066448;28;19940;-66
2023/05/10 03:06:34;;;;;;;;;;;;;;;;;;5064535;28;19924;-66
2023/05/10 03:09:01;;;;;;;;;;;;;;;;;;5068382;28;19924;-66
2023/05/10 03:11:28;;;;;;;;;;;;;;;;;;5065971;28;19931;-67
2023/05/10 03:13:56;;;;;;;;;;;;;;;;;;5066200;28;20014;-66
2023/05/10 03:16:23;;;;;;;;;;;;;;;;;;5064686;28;19932;-66
2023/05/10 03:18:50;;;;;;;;;;;;;;;;;;5069312;28;19940;-66
2023/05/10 03:21:17;;;;;;;;;;;;;;;;;;5068798;28;19960;-66
2023/05/10 03:23:44;;;;;;;;;;;;;;;;;;5079328;28;20472;-66
2023/05/10 03:26:11;;;;;;;;;;;;;;;;;;5069875;28;19981;-67
2023/05/10 03:28:38;;;;;;;;;;;;;;;;;;5070471;28;19928;-67
2023/05/10 03:31:05;;;;;;;;;;;;;;;;;;5064268;28;20393;-68
2023/05/10 03:33:32;;;;;;;;;;;;;;;;;;5064157;28;19924;-68
2023/05/10 03:35:59;;;;;;;;;;;;;;;;;;5075086;28;20394;-67
2023/05/10 03:38:26;;;;;;;;;;;;;;;;;;5065939;28;19947;-68
2023/05/10 03:40:53;;;;;;;;;;;;;;;;;;5064618;28;19960;-67
2023/05/10 03:43:20;;;;;;;;;;;;;;;;;;5064316;28;19952;-67
2023/05/10 03:45:47;;;;;;;;;;;;;;;;;;5064404;28;19978;-67
2023/05/10 03:48:14;;;;;;;;;;;;;;;;;;5059280;28;19932;-67
2023/05/10 03:50:42;;;;;;;;;;;;;;;;;;5066822;28;20343;-67
2023/05/10 03:53:09;;;;;;;;;;;;;;;;;;5068936;28;19932;-66
2023/05/10 03:55:36;;;;;;;;;;;;;;;;;;5071167;28;21898;-66
2023/05/10 03:58:03;;;;;;;;;;;;;;;;;;5063401;28;20051;-66
2023/05/10 04:00:31;;;;;;;;;;;;;;;;;;5065122;28;19976;-67
2023/05/10 04:02:58;;;;;;;;;;;;;;;;;;5065688;28;19924;-67
2023/05/10 04:05:25;;;;;;;;;;;;;;;;;;5071131;28;20418;-66
2023/05/10 04:07:52;;;;;;;;;;;;;;;;;;5069905;28;19939;-66
2023/05/10 04:10:19;;;;;;;;;;;;;;;;;;5067437;28;19963;-66
2023/05/10 04:12:46;;;;;;;;;;;;;;;;;;5064203;28;19960;-66
2023/05/10 04:15:13;;;;;;;;;;;;;;;;;;5062623;28;19925;-66
2023/05/10 04:17:40;;;;;;;;;;;;;;;;;;5067593;28;20401;-66
2023/05/10 04:20:08;;;;;;;;;;;;;;;;;;5064469;28;19964;-66
2023/05/10 04:22:35;;;;;;;;;;;;;;;;;;5067638;28;20485;-66
2023/05/10 04:25:02;;;;;;;;;;;;;;;;;;5063681;28;19963;-66
2023/05/10 04:27:29;;;;;;;;;;;;;;;;;;5066214;28;19942;-66
2023/05/10 04:29:56;;;;;;;;;;;;;;;;;;5061030;28;19925;-67
2023/05/10 04:32:23;;;;;;;;;;;;;;;;;;5062860;28;19946;-66
2023/05/10 04:34:50;;;;;;;;;;;;;;;;;;5061842;28;20061;-66
2023/05/10 04:37:17;;;;;;;;;;;;;;;;;;5074216;28;20340;-66
2023/05/10 04:39:44;;;;;;;;;;;;;;;;;;5065487;28;19982;-66
2023/05/10 04:42:12;;;;;;;;;;;;;;;;;;5068686;28;20440;-66
2023/05/10 04:44:39;;;;;;;;;;;;;;;;;;5077160;28;19993;-67
2023/05/10 04:47:06;;;;;;;;;;;;;;;;;;5068246;28;20011;-65
2023/05/10 04:49:33;;;;;;;;;;;;;;;;;;5064215;28;19994;-67
2023/05/10 04:52:00;;;;;;;;;;;;;;;;;;5069128;28;19925;-67
2023/05/10 04:54:27;;;;;;;;;;;;;;;;;;5070848;28;19959;-67
2023/05/10 04:56:54;;;;;;;;;;;;;;;;;;5071922;28;20015;-67
2023/05/10 04:59:21;;;;;;;;;;;;;;;;;;5071846;28;19932;-68
2023/05/10 05:01:48;;;;;;;;;;;;;;;;;;5064792;28;19931;-68
2023/05/10 05:04:15;;;;;;;;;;;;;;;;;;5072082;28;19981;-67
2023/05/10 05:06:42;;;;;;;;;;;;;;;;;;5072478;28;19925;-65
2023/05/10 05:09:10;;;;;;;;;;;;;;;;;;5070735;28;19932;-67
2023/05/10 05:11:37;;;;;;;;;;;;;;;;;;5079874;28;19924;-68
2023/05/10 05:14:04;;;;;;;;;;;;;;;;;;5068053;28;20659;-68
2023/05/10 05:16:31;;;;;;;;;;;;;;;;;;5070234;28;19929;-68
2023/05/10 05:18:58;;;;;;;;;;;;;;;;;;5073191;28;19924;-68
2023/05/10 05:21:26;;;;;;;;;;;;;;;;;;5068652;28;19929;-68
2023/05/10 05:23:53;;;;;;;;;;;;;;;;;;5071397;28;19924;-68
2023/05/10 05:26:21;;;;;;;;;;;;;;;;;;5078338;28;20363;-68
2023/05/10 05:28:48;;;;;;;;;;;;;;;;;;5078315;28;19960;-68
2023/05/10 05:31:15;;;;;;;;;;;;;;;;;;5079299;28;20259;-68
2023/05/10 05:33:42;;;;;;;;;;;;;;;;;;5069592;28;19925;-68
2023/05/10 05:36:10;;;;;;;;;;;;;;;;;;5062399;28;19970;-68
2023/05/10 05:38:37;;;;;;;;;;;;;;;;;;5086198;28;19932;-68
2023/05/10 05:41:04;;;;;;;;;;;;;;;;;;5069947;28;19931;-68
2023/05/10 05:43:31;;;;;;;;;;;;;;;;;;5078338;28;19924;-68
2023/05/10 05:45:58;;;;;;;;;;;;;;;;;;5072312;28;20329;-69
2023/05/10 05:48:25;;;;;;;;;;;;;;;;;;5076956;28;20374;-68
2023/05/10 05:50:52;;;;;;;;;;;;;;;;;;5075724;28;19928;-69
2023/05/10 05:53:19;;;;;;;;;;;;;;;;;;5075169;28;19987;-68
2023/05/10 05:55:46;;;;;;;;;;;;;;;;;;5079730;28;20298;-68
2023/05/10 05:58:13;;;;;;;;;;;;;;;;;;5065914;28;19932;-67
2023/05/10 06:00:41;;;;;;;;;;;;;;;;;;5071697;28;20409;-67
2023/05/10 06:03:08;;;;;;;;;;;;;;;;;;5069144;28;19931;-67
2023/05/10 06:05:35;;;;;;;;;;;;;;;;;;5062573;28;20139;-66
2023/05/10 06:08:02;;;;;;;;;;;;;;;;;;5071135;28;19952;-67
2023/05/10 06:10:30;;;;;;;;;;;;;;;;;;5064817;28;22058;-68
2023/05/10 06:12:57;;;;;;;;;;;;;;;;;;5065881;28;19931;-68
2023/05/10 06:15:24;;;;;;;;;;;;;;;;;;5066125;28;20360;-66
2023/05/10 06:17:51;;;;;;;;;;;;;;;;;;5073076;28;19974;-67
2023/05/10 06:20:18;;;;;;;;;;;;;;;;;;5072788;28;19990;-68
2023/05/10 06:22:45;;;;;;;;;;;;;;;;;;5071067;28;19972;-68
2023/05/10 06:25:12;;;;;;;;;;;;;;;;;;5070849;28;19932;-69
2023/05/10 06:27:39;;;;;;;;;;;;;;;;;;5073708;28;19924;-68
2023/05/10 06:30:08;;;;;;;;;;;;;;;;;;5074303;28;19924;-67
2023/05/10 06:32:35;;;;;;;;;;;;;;;;;;5070079;28;19924;-68
2023/05/10 06:35:02;;;;;;;;;;;;;;;;;;5074875;28;20456;-68
2023/05/10 06:37:29;;;;;;;;;;;;;;;;;;5065042;28;20035;-66
2023/05/10 06:39:56;;;;;;;;;;;;;;;;;;5059804;28;20001;-69
2023/05/10 06:42:25;;;;;;;;;;;;;;;;;;5059135;28;19956;-69
2023/05/10 06:44:52;;;;;;;;;;;;;;;;;;5062907;28;20042;-69
2023/05/10 06:47:19;;;;;;;;;;;;;;;;;;5065728;28;20439;-69
2023/05/10 06:49:46;;;;;;;;;;;;;;;;;;5064664;28;19932;-70
2023/05/10 06:52:13;;;;;;;;;;;;;;;;;;5062269;28;20010;-68
2023/05/10 06:54:40;;;;;;;;;;;;;;;;;;5067501;28;19974;-68
2023/05/10 06:57:07;;;;;;;;;;;;;;;;;;5060601;28;21430;-68
2023/05/10 06:59:34;;;;;;;;;;;;;;;;;;5067612;28;19928;-68
2023/05/10 07:02:01;;;;;;;;;;;;;;;;;;5064546;28;19970;-68
2023/05/10 07:04:28;;;;;;;;;;;;;;;;;;5065645;28;20029;-68
2023/05/10 07:06:55;;;;;;;;;;;;;;;;;;5072211;28;19928;-68
2023/05/10 07:09:24;;;;;;;;;;;;;;;;;;5075371;28;20341;-70
2023/05/10 07:11:51;;;;;;;;;;;;;;;;;;5075380;28;20015;-71
2023/05/10 07:14:18;;;;;;;;;;;;;;;;;;5063804;28;19932;-71
2023/05/10 07:16:45;;;;;;;;;;;;;;;;;;5061701;28;19932;-71
2023/05/10 07:19:12;;;;;;;;;;;;;;;;;;5064275;28;19970;-68
2023/05/10 07:21:40;;;;;;;;;;;;;;;;;;5070091;28;19925;-68
2023/05/10 07:24:07;;;;;;;;;;;;;;;;;;5068670;28;20057;-68
2023/05/10 07:26:34;;;;;;;;;;;;;;;;;;5071694;28;20367;-69
2023/05/10 07:29:01;;;;;;;;;;;;;;;;;;5070133;28;19978;-69
2023/05/10 07:31:28;;;;;;;;;;;;;;;;;;5080732;28;19924;-68
2023/05/10 07:33:55;;;;;;;;;;;;;;;;;;5068647;28;20383;-68
2023/05/10 07:36:22;;;;;;;;;;;;;;;;;;5068364;28;19959;-68
2023/05/10 07:38:49;;;;;;;;;;;;;;;;;;5066271;28;19978;-69
2023/05/10 07:41:16;;;;;;;;;;;;;;;;;;5071370;28;19929;-69
2023/05/10 07:43:43;;;;;;;;;;;;;;;;;;5075975;28;19932;-69
2023/05/10 07:46:11;;;;;;;;;;;;;;;;;;5066828;28;19925;-69
2023/05/10 07:48:38;;;;;;;;;;;;;;;;;;5069941;28;19967;-69
2023/05/10 07:51:06;;;;;;;;;;;;;;;;;;5067069;28;20474;-68
2023/05/10 07:53:33;;;;;;;;;;;;;;;;;;5069409;28;19924;-68
2023/05/10 07:56:00;;;;;;;;;;;;;;;;;;5063920;28;19968;-68
2023/05/10 07:58:27;;;;;;;;;;;;;;;;;;5060184;28;20023;-68
2023/05/10 08:00:54;;;;;;;;;;;;;;;;;;5063733;28;20053;-70
2023/05/10 08:03:21;;;;;;;;;;;;;;;;;;5062289;28;20003;-69
2023/05/10 08:05:48;;;;;;;;;;;;;;;;;;5069063;28;20321;-70
2023/05/10 08:08:15;;;;;;;;;;;;;;;;;;5062178;28;19928;-70
2023/05/10 08:10:42;;;;;;;;;;;;;;;;;;5066229;28;20401;-67
2023/05/10 08:13:10;;;;;;;;;;;;;;;;;;5066664;28;19932;-67
2023/05/10 08:15:37;;;;;;;;;;;;;;;;;;5062894;28;19932;-66
2023/05/10 08:18:04;;;;;;;;;;;;;;;;;;5069480;28;19925;-68
2023/05/10 08:20:31;;;;;;;;;;;;;;;;;;5067806;28;19930;-69
2023/05/10 08:22:58;;;;;;;;;;;;;;;;;;5062891;28;19928;-67
2023/05/10 08:25:25;;;;;;;;;;;;;;;;;;5062945;28;19964;-67
2023/05/10 08:27:52;;;;;;;;;;;;;;;;;;5065826;28;20003;-67
2023/05/10 08:30:19;;;;;;;;;;;;;;;;;;5066937;28;20299;-67
2023/05/10 08:32:46;;;;;;;;;;;;;;;;;;5068298;28;20020;-68
2023/05/10 08:35:13;;;;;;;;;;;;;;;;;;5067105;28;19924;-68
2023/05/10 08:37:40;;;;;;;;;;;;;;;;;;5064423;28;19924;-67
2023/05/10 08:40:07;;;;;;;;;;;;;;;;;;5065940;28;19928;-67
2023/05/10 08:42:34;;;;;;;;;;;;;;;;;;5072324;28;19928;-67
2023/05/10 08:45:01;;;;;;;;;;;;;;;;;;5066950;28;19924;-67
2023/05/10 08:47:28;;;;;;;;;;;;;;;;;;5066675;28;20013;-67
2023/05/10 08:49:55;;;;;;;;;;;;;;;;;;5067614;28;19929;-67
2023/05/10 08:52:22;;;;;;;;;;;;;;;;;;5065405;28;19956;-67
2023/05/10 08:54:50;;;;;;;;;;;;;;;;;;5069363;28;21616;-66
2023/05/10 08:57:17;;;;;;;;;;;;;;;;;;5062759;28;19970;-67
2023/05/10 08:59:44;;;;;;;;;;;;;;;;;;5063740;28;19981;-67
2023/05/10 09:02:11;;;;;;;;;;;;;;;;;;5066974;28;19952;-67
2023/05/10 09:04:38;;;;;;;;;;;;;;;;;;5064574;28;19924;-68
2023/05/10 09:07:05;;;;;;;;;;;;;;;;;;5064505;28;19924;-68
2023/05/10 09:09:32;;;;;;;;;;;;;;;;;;5066981;28;19939;-67
2023/05/10 09:11:59;;;;;;;;;;;;;;;;;;5061916;28;19931;-68
2023/05/10 09:14:26;;;;;;;;;;;;;;;;;;5068508;28;19968;-67
2023/05/10 09:16:54;;;;;;;;;;;;;;;;;;5072173;28;19933;-68
2023/05/10 09:19:21;;;;;;;;;;;;;;;;;;5065175;28;19936;-68
2023/05/10 09:21:48;;;;;;;;;;;;;;;;;;5062791;28;20345;-67
2023/05/10 09:24:14;;;;;;;;;;;;;;;;;;5064918;28;19924;-68
2023/05/10 09:26:41;;;;;;;;;;;;;;;;;;5065205;28;20013;-65
2023/05/10 09:29:08;;;;;;;;;;;;;;;;;;5066503;28;19986;-66
2023/05/10 09:31:35;;;;;;;;;;;;;;;;;;5067884;28;19968;-67
2023/05/10 09:34:02;;;;;;;;;;;;;;;;;;5063889;28;19928;-67
2023/05/10 09:36:29;;;;;;;;;;;;;;;;;;5063008;28;19978;-66
2023/05/10 09:38:57;;;;;;;;;;;;;;;;;;5068367;28;20460;-67
2023/05/10 09:41:24;;;;;;;;;;;;;;;;;;5063652;28;19924;-67
2023/05/10 09:43:51;;;;;;;;;;;;;;;;;;5064918;28;20337;-67
2023/05/10 09:46:18;;;;;;;;;;;;;;;;;;5066769;28;19928;-68
2023/05/10 09:48:45;;;;;;;;;;;;;;;;;;5064572;28;20811;-68
2023/05/10 09:51:12;;;;;;;;;;;;;;;;;;5062979;28;19932;-67
2023/05/10 09:53:39;;;;;;;;;;;;;;;;;;5068343;28;20332;-68
2023/05/10 09:56:06;;;;;;;;;;;;;;;;;;5068100;28;19929;-68
2023/05/10 09:58:33;;;;;;;;;;;;;;;;;;5064396;28;21006;-68
2023/05/10 10:01:00;;;;;;;;;;;;;;;;;;5072574;28;19928;-67
2023/05/10 10:03:29;;;;;;;;;;;;;;;;;;5065681;28;19968;-68
2023/05/10 10:05:56;;;;;;;;;;;;;;;;;;5070495;28;19960;-68
2023/05/10 10:08:23;;;;;;;;;;;;;;;;;;5065550;28;20455;-67
2023/05/10 10:10:50;;;;;;;;;;;;;;;;;;5065084;28;20023;-69
2023/05/10 10:13:17;;;;;;;;;;;;;;;;;;5069498;28;19955;-69
2023/05/10 10:15:45;;;;;;;;;;;;;;;;;;5074200;28;19925;-70
2023/05/10 10:18:12;;;;;;;;;;;;;;;;;;5073725;28;20015;-67
2023/05/10 10:20:39;;;;;;;;;;;;;;;;;;5067744;28;19925;-68
2023/05/10 10:23:06;;;;;;;;;;;;;;;;;;5073417;28;19929;-68
2023/05/10 10:25:33;;;;;;;;;;;;;;;;;;5069997;28;20011;-68
2023/05/10 10:28:00;;;;;;;;;;;;;;;;;;5068142;28;20030;-67
2023/05/10 10:30:28;;;;;;;;;;;;;;;;;;5068461;28;20257;-68
2023/05/10 10:32:55;;;;;;;;;;;;;;;;;;5064221;28;20030;-66
2023/05/10 10:35:22;;;;;;;;;;;;;;;;;;5071284;28;19932;-67
2023/05/10 10:37:49;;;;;;;;;;;;;;;;;;5073113;28;19978;-68
2023/05/10 10:40:16;;;;;;;;;;;;;;;;;;5069276;28;19931;-68
2023/05/10 10:42:43;;;;;;;;;;;;;;;;;;5070106;28;19994;-68
2023/05/10 10:45:10;;;;;;;;;;;;;;;;;;5078662;28;20762;-68
2023/05/10 10:47:37;;;;;;;;;;;;;;;;;;5072407;28;20395;-67
2023/05/10 10:50:04;;;;;;;;;;;;;;;;;;5070745;28;19940;-66
2023/05/10 10:52:33;;;;;;;;;;;;;;;;;;5067870;28;19924;-68
2023/05/10 10:55:00;;;;;;;;;;;;;;;;;;5069375;28;19944;-67
2023/05/10 10:57:27;;;;;;;;;;;;;;;;;;5069001;28;20401;-67
2023/05/10 10:59:54;;;;;;;;;;;;;;;;;;5067140;28;20307;-66
2023/05/10 11:02:21;;;;;;;;;;;;;;;;;;5071956;28;19928;-67
2023/05/10 11:04:48;;;;;;;;;;;;;;;;;;5068107;28;20460;-67
2023/05/10 11:07:15;;;;;;;;;;;;;;;;;;5055284;28;19932;-68
2023/05/10 11:09:42;;;;;;;;;;;;;;;;;;5069336;28;20299;-67
2023/05/10 11:12:09;;;;;;;;;;;;;;;;;;5067238;28;19924;-67
2023/05/10 11:14:36;;;;;;;;;;;;;;;;;;5070651;28;19924;-66
2023/05/10 11:17:03;;;;;;;;;;;;;;;;;;5067146;28;20325;-66
2023/05/10 11:19:30;;;;;;;;;;;;;;;;;;5072507;28;19986;-66
2023/05/10 11:21:57;;;;;;;;;;;;;;;;;;5067464;28;19971;-67
2023/05/10 11:24:24;;;;;;;;;;;;;;;;;;5069897;28;19932;-67
2023/05/10 11:26:52;;;;;;;;;;;;;;;;;;5066845;28;19932;-67
2023/05/10 11:29:19;;;;;;;;;;;;;;;;;;5065448;28;19933;-68
2023/05/10 11:31:46;;;;;;;;;;;;;;;;;;5065367;28;20031;-67
2023/05/10 11:34:16;;;;;;;;;;;;;;;;;;5066464;28;19925;-67
2023/05/10 11:36:43;;;;;;;;;;;;;;;;;;5067679;28;19928;-67
2023/05/10 11:39:11;;;;;;;;;;;;;;;;;;5067209;28;19928;-67
2023/05/10 11:41:38;;;;;;;;;;;;;;;;;;5068565;28;19924;-67
2023/05/10 11:44:05;;;;;;;;;;;;;;;;;;5069775;28;20361;-67
2023/05/10 11:46:32;;;;;;;;;;;;;;;;;;5066496;28;20060;-66
2023/05/10 11:49:00;;;;;;;;;;;;;;;;;;5071940;28;19975;-67
2023/05/10 11:51:27;;;;;;;;;;;;;;;;;;5068339;28;20022;-67
2023/05/10 11:53:54;;;;;;;;;;;;;;;;;;5068200;28;20390;-67
2023/05/10 11:56:21;;;;;;;;;;;;;;;;;;5074975;28;19950;-67
2023/05/10 11:58:48;;;;;;;;;;;;;;;;;;5067398;28;19935;-67
2023/05/10 12:01:15;;;;;;;;;;;;;;;;;;5066689;28;20351;-68
2023/05/10 12:03:42;;;;;;;;;;;;;;;;;;5062549;28;19929;-67
2023/05/10 12:06:10;;;;;;;;;;;;;;;;;;5069040;28;19928;-67
2023/05/10 12:08:37;;;;;;;;;;;;;;;;;;5067860;28;20001;-67
2023/05/10 12:11:04;;;;;;;;;;;;;;;;;;5070975;28;19963;-67
2023/05/10 12:13:31;;;;;;;;;;;;;;;;;;5067321;28;19931;-67
2023/05/10 12:15:58;;;;;;;;;;;;;;;;;;5065988;28;19928;-68
2023/05/10 12:18:25;;;;;;;;;;;;;;;;;;5067067;28;20028;-68
2023/05/10 12:20:52;;;;;;;;;;;;;;;;;;5071582;28;19932;-68
2023/05/10 12:23:19;;;;;;;;;;;;;;;;;;5066782;28;19924;-68
2023/05/10 12:25:46;;;;;;;;;;;;;;;;;;5066444;28;19928;-68
2023/05/10 12:28:13;;;;;;;;;;;;;;;;;;5069199;28;19982;-66
2023/05/10 12:30:40;;;;;;;;;;;;;;;;;;5063765;28;19924;-66
2023/05/10 12:33:07;;;;;;;;;;;;;;;;;;5066502;28;19972;-66
2023/05/10 12:35:35;;;;;;;;;;;;;;;;;;5065992;28;19982;-67
2023/05/10 12:38:02;;;;;;;;;;;;;;;;;;5069387;28;20383;-68
2023/05/10 12:40:29;;;;;;;;;;;;;;;;;;5071583;28;20000;-67
2023/05/10 12:42:56;;;;;;;;;;;;;;;;;;5064207;28;20372;-67
2023/05/10 12:45:23;;;;;;;;;;;;;;;;;;5060096;28;19936;-70
2023/05/10 12:47:50;;;;;;;;;;;;;;;;;;5062691;28;19928;-67
2023/05/10 12:50:17;;;;;;;;;;;;;;;;;;5067648;28;19931;-68
2023/05/10 12:52:44;;;;;;;;;;;;;;;;;;5070067;28;19928;-68
2023/05/10 12:55:11;;;;;;;;;;;;;;;;;;5067354;28;19924;-67
2023/05/10 12:57:39;;;;;;;;;;;;;;;;;;5067679;28;19967;-69
2023/05/10 13:00:09;;;;;;;;;;;;;;;;;;5064019;28;20345;-69
2023/05/10 13:02:36;;;;;;;;;;;;;;;;;;5068304;28;19931;-69
2023/05/10 13:05:03;;;;;;;;;;;;;;;;;;5065285;28;19928;-69
2023/05/10 13:07:30;;;;;;;;;;;;;;;;;;5068441;28;19932;-68
2023/05/10 13:09:57;;;;;;;;;;;;;;;;;;5061691;28;19928;-69
2023/05/10 13:12:24;;;;;;;;;;;;;;;;;;5067821;28;20354;-68
2023/05/10 13:14:51;;;;;;;;;;;;;;;;;;5062661;28;19936;-68
2023/05/10 13:17:18;;;;;;;;;;;;;;;;;;5064204;28;19951;-69
2023/05/10 13:19:46;;;;;;;;;;;;;;;;;;5060923;28;19978;-69
2023/05/10 13:22:13;;;;;;;;;;;;;;;;;;5069737;28;20337;-68
2023/05/10 13:24:40;;;;;;;;;;;;;;;;;;5067940;28;19932;-68
2023/05/10 13:27:07;;;;;;;;;;;;;;;;;;5068417;28;19940;-68
2023/05/10 13:29:34;;;;;;;;;;;;;;;;;;5068052;28;19936;-69
2023/05/10 13:32:01;;;;;;;;;;;;;;;;;;5073077;28;19951;-69
2023/05/10 13:34:28;;;;;;;;;;;;;;;;;;5070049;28;20043;-69
2023/05/10 13:36:55;;;;;;;;;;;;;;;;;;5061476;28;19986;-68
2023/05/10 13:39:23;;;;;;;;;;;;;;;;;;5067178;28;19964;-70
2023/05/10 13:41:50;;;;;;;;;;;;;;;;;;5066093;28;19928;-67
2023/05/10 13:44:17;;;;;;;;;;;;;;;;;;5069450;28;20023;-68
2023/05/10 13:46:44;;;;;;;;;;;;;;;;;;5063603;28;20011;-67
2023/05/10 13:49:11;;;;;;;;;;;;;;;;;;5064586;28;20375;-67
2023/05/10 13:51:38;;;;;;;;;;;;;;;;;;5065568;28;19999;-68
2023/05/10 13:54:06;;;;;;;;;;;;;;;;;;5063778;28;20072;-68
2023/05/10 13:56:33;;;;;;;;;;;;;;;;;;5066839;28;19932;-68
2023/05/10 13:59:00;;;;;;;;;;;;;;;;;;5070303;28;19936;-68
2023/05/10 14:01:27;;;;;;;;;;;;;;;;;;5067954;28;19939;-68
2023/05/10 14:03:54;;;;;;;;;;;;;;;;;;5067364;28;19928;-68
2023/05/10 14:06:21;;;;;;;;;;;;;;;;;;5067802;28;19960;-67
2023/05/10 14:08:48;;;;;;;;;;;;;;;;;;5065612;28;20011;-68
2023/05/10 14:11:15;;;;;;;;;;;;;;;;;;5065241;28;20033;-67
2023/05/10 14:13:42;;;;;;;;;;;;;;;;;;5063244;28;20405;-67
2023/05/10 14:16:09;;;;;;;;;;;;;;;;;;5062434;28;19925;-67
2023/05/10 14:18:37;;;;;;;;;;;;;;;;;;5071770;28;20020;-68
2023/05/10 14:21:04;;;;;;;;;;;;;;;;;;5064786;28;20399;-68
2023/05/10 14:23:31;;;;;;;;;;;;;;;;;;5062584;28;19924;-68
2023/05/10 14:25:58;;;;;;;;;;;;;;;;;;5069570;28;19924;-68
2023/05/10 14:28:25;;;;;;;;;;;;;;;;;;5063328;28;19979;-68
2023/05/10 14:30:52;;;;;;;;;;;;;;;;;;5073463;28;20383;-67
2023/05/10 14:33:20;;;;;;;;;;;;;;;;;;5067529;28;19928;-67
2023/05/10 14:35:47;;;;;;;;;;;;;;;;;;5065939;28;19936;-67
2023/05/10 14:38:15;;;;;;;;;;;;;;;;;;5068140;28;19964;-67
2023/05/10 14:40:42;;;;;;;;;;;;;;;;;;5062499;28;20790;-66
2023/05/10 14:43:09;;;;;;;;;;;;;;;;;;5061100;28;20025;-67
2023/05/10 14:45:36;;;;;;;;;;;;;;;;;;5069734;28;19964;-66
2023/05/10 14:48:04;;;;;;;;;;;;;;;;;;5068513;28;19961;-67
2023/05/10 14:50:31;;;;;;;;;;;;;;;;;;5067441;28;19925;-68
2023/05/10 14:52:58;;;;;;;;;;;;;;;;;;5078021;28;19971;-69
2023/05/10 14:55:25;;;;;;;;;;;;;;;;;;5075694;28;19924;-69
2023/05/10 14:57:53;;;;;;;;;;;;;;;;;;5071879;28;19931;-70
2023/05/10 15:00:20;;;;;;;;;;;;;;;;;;5065587;28;19932;-70
2023/05/10 15:02:47;;;;;;;;;;;;;;;;;;5066119;28;20427;-70
2023/05/10 15:05:14;;;;;;;;;;;;;;;;;;5071275;28;20027;-70
2023/05/10 15:07:43;;;;;;;;;;;;;;;;;;5066563;28;20039;-69
2023/05/10 15:10:10;;;;;;;;;;;;;;;;;;5068314;28;19990;-69
2023/05/10 15:12:37;;;;;;;;;;;;;;;;;;5072955;28;19924;-69
2023/05/10 15:15:04;;;;;;;;;;;;;;;;;;5065227;28;19986;-70
2023/05/10 15:17:31;;;;;;;;;;;;;;;;;;5068518;28;19925;-71
2023/05/10 15:19:58;;;;;;;;;;;;;;;;;;5062171;28;19932;-72
2023/05/10 15:22:25;;;;;;;;;;;;;;;;;;5066519;28;20391;-72
2023/05/10 15:24:52;;;;;;;;;;;;;;;;;;5062474;28;19925;-71
2023/05/10 15:27:19;;;;;;;;;;;;;;;;;;5065984;28;20390;-72
2023/05/10 15:29:46;;;;;;;;;;;;;;;;;;5069459;28;19924;-72
2023/05/10 15:32:13;;;;;;;;;;;;;;;;;;5070502;28;20455;-70
2023/05/10 15:34:40;;;;;;;;;;;;;;;;;;5070325;28;19967;-70
2023/05/10 15:37:07;;;;;;;;;;;;;;;;;;5068662;28;19931;-70
2023/05/10 15:39:34;;;;;;;;;;;;;;;;;;5068079;28;20386;-71
2023/05/10 15:42:02;;;;;;;;;;;;;;;;;;5067711;28;19929;-70
2023/05/10 15:44:29;;;;;;;;;;;;;;;;;;5066571;28;19940;-70
2023/05/10 15:46:56;;;;;;;;;;;;;;;;;;5070486;28;19928;-70
2023/05/10 15:49:24;;;;;;;;;;;;;;;;;;5064163;28;19977;-70
2023/05/10 15:51:51;;;;;;;;;;;;;;;;;;5072544;28;19932;-71
2023/05/10 15:54:18;;;;;;;;;;;;;;;;;;5067349;28;20371;-71
2023/05/10 15:56:45;;;;;;;;;;;;;;;;;;5070226;28;20001;-71
2023/05/10 15:59:12;;;;;;;;;;;;;;;;;;5072134;28;19974;-71
2023/05/10 16:01:39;;;;;;;;;;;;;;;;;;5071135;28;20013;-72
2023/05/10 16:04:06;;;;;;;;;;;;;;;;;;5070202;28;20283;-71
2023/05/10 16:06:33;;;;;;;;;;;;;;;;;;5069608;28;19939;-70
2023/05/10 16:09:00;;;;;;;;;;;;;;;;;;5063858;28;19948;-70
2023/05/10 16:11:27;;;;;;;;;;;;;;;;;;5067630;28;19924;-72
2023/05/10 16:13:54;;;;;;;;;;;;;;;;;;5068537;28;19981;-70
2023/05/10 16:16:21;;;;;;;;;;;;;;;;;;5069444;28;19924;-70
2023/05/10 16:18:48;;;;;;;;;;;;;;;;;;5071739;28;19928;-70
2023/05/10 16:21:15;;;;;;;;;;;;;;;;;;5067716;28;19924;-70
2023/05/10 16:23:45;;;;;;;;;;;;;;;;;;5067996;28;19938;-70
2023/05/10 16:26:12;;;;;;;;;;;;;;;;;;5069773;28;20282;-71
2023/05/10 16:28:40;;;;;;;;;;;;;;;;;;5067981;28;19970;-70
2023/05/10 16:31:07;;;;;;;;;;;;;;;;;;5069371;28;19978;-71
2023/05/10 16:33:34;;;;;;;;;;;;;;;;;;5067563;28;20082;-71
2023/05/10 16:36:01;;;;;;;;;;;;;;;;;;5063578;28;19952;-69
2023/05/10 16:38:28;;;;;;;;;;;;;;;;;;5068448;28;20348;-70
2023/05/10 16:40:56;;;;;;;;;;;;;;;;;;5064500;28;19991;-71
2023/05/10 16:43:23;;;;;;;;;;;;;;;;;;5066496;28;19994;-72